createdAt,value
2023-01-09T00:00:38.743Z,25.90
2023-01-09T00:01:38.712Z,25.94
2023-01-09T00:02:38.746Z,25.90
2023-01-09T00:03:38.769Z,25.91
2023-01-09T00:04:38.714Z,25.90
2023-01-09T00:05:38.698Z,25.90
2023-01-09T00:06:38.690Z,25.92
2023-01-09T00:07:38.699Z,25.88
2023-01-09T00:08:38.691Z,25.94
2023-01-09T00:09:38.697Z,25.92
2023-01-09T00:10:38.703Z,25.94
2023-01-09T00:11:38.697Z,25.94
2023-01-09T00:12:38.688Z,25.92
2023-01-09T00:13:38.693Z,25.95
2023-01-09T00:14:38.687Z,25.91
2023-01-09T00:15:38.692Z,25.94
2023-01-09T00:16:38.742Z,25.92
2023-01-09T00:17:38.687Z,25.85
2023-01-09T00:18:38.687Z,25.94
2023-01-09T00:19:38.691Z,25.88
2023-01-09T00:20:38.709Z,25.91
2023-01-09T00:21:38.691Z,25.92
2023-01-09T00:22:38.680Z,25.91
2023-01-09T00:23:38.686Z,25.91
2023-01-09T00:24:38.682Z,25.88
2023-01-09T00:25:38.722Z,25.91
2023-01-09T00:26:38.676Z,25.94
2023-01-09T00:27:38.689Z,25.94
2023-01-09T00:28:38.674Z,25.92
2023-01-09T00:29:38.681Z,25.92
2023-01-09T00:30:38.718Z,25.90
2023-01-09T00:31:38.686Z,25.91
2023-01-09T00:32:38.671Z,25.90
2023-01-09T00:33:38.676Z,25.91
2023-01-09T00:34:38.671Z,25.90
2023-01-09T00:35:38.676Z,25.90
2023-01-09T00:36:38.690Z,25.87
2023-01-09T00:37:38.681Z,25.88
2023-01-09T00:38:38.666Z,25.90
2023-01-09T00:39:38.672Z,25.91
2023-01-09T00:40:38.675Z,25.92
2023-01-09T00:41:38.678Z,25.87
2023-01-09T00:42:38.661Z,25.85
2023-01-09T00:43:38.669Z,25.90
2023-01-09T00:44:38.662Z,25.92
2023-01-09T00:45:38.715Z,25.94
2023-01-09T00:46:38.659Z,25.90
2023-01-09T00:47:38.667Z,25.95
2023-01-09T00:48:38.663Z,25.88
2023-01-09T00:49:38.663Z,25.87
2023-01-09T00:50:38.655Z,25.85
2023-01-09T00:51:38.662Z,25.92
2023-01-09T00:52:38.680Z,25.94
2023-01-09T00:53:38.663Z,25.95
2023-01-09T00:54:38.653Z,25.90
2023-01-09T00:55:38.660Z,25.94
2023-01-09T00:56:38.649Z,25.90
2023-01-09T00:57:38.661Z,25.94
2023-01-09T00:58:38.650Z,25.94
2023-01-09T00:59:38.660Z,25.88
2023-01-09T01:00:38.676Z,25.87
2023-01-09T01:01:38.816Z,25.87
2023-01-09T01:02:38.677Z,25.94
2023-01-09T01:03:38.652Z,25.92
2023-01-09T01:04:38.649Z,25.90
2023-01-09T01:05:38.656Z,25.91
2023-01-09T01:06:38.647Z,25.92
2023-01-09T01:07:38.653Z,25.92
2023-01-09T01:08:38.666Z,25.87
2023-01-09T01:09:38.648Z,25.90
2023-01-09T01:10:38.638Z,25.91
2023-01-09T01:11:38.650Z,25.90
2023-01-09T01:12:38.633Z,25.92
2023-01-09T01:13:38.641Z,25.91
2023-01-09T01:14:38.630Z,25.90
2023-01-09T01:15:38.639Z,25.92
2023-01-09T01:16:38.652Z,25.92
2023-01-09T01:17:38.638Z,25.91
2023-01-09T01:18:38.630Z,25.94
2023-01-09T01:19:38.644Z,25.95
2023-01-09T01:20:38.627Z,25.92
2023-01-09T01:21:38.633Z,25.94
2023-01-09T01:22:38.631Z,25.90
2023-01-09T01:23:38.634Z,25.90
2023-01-09T01:24:38.653Z,25.92
2023-01-09T01:25:38.634Z,25.88
2023-01-09T01:26:38.629Z,25.90
2023-01-09T01:27:38.644Z,25.90
2023-01-09T01:28:38.625Z,25.90
2023-01-09T01:29:38.630Z,25.91
2023-01-09T01:30:38.666Z,25.92
2023-01-09T01:31:38.628Z,25.90
2023-01-09T01:32:38.631Z,25.90
2023-01-09T01:33:38.619Z,25.94
2023-01-09T01:34:38.627Z,25.92
2023-01-09T01:35:38.617Z,25.92
2023-01-09T01:36:38.621Z,25.91
2023-01-09T01:37:38.684Z,25.90
2023-01-09T01:38:38.620Z,25.88
2023-01-09T01:39:38.615Z,25.92
2023-01-09T01:40:38.653Z,25.88
2023-01-09T01:41:38.617Z,25.91
2023-01-09T01:42:38.618Z,25.90
2023-01-09T01:43:38.613Z,25.88
2023-01-09T01:44:38.616Z,25.92
2023-01-09T01:45:38.697Z,25.92
2023-01-09T01:46:38.616Z,25.92
2023-01-09T01:47:38.606Z,25.94
2023-01-09T01:48:38.614Z,25.91
2023-01-09T01:49:38.612Z,25.90
2023-01-09T01:50:38.609Z,25.95
2023-01-09T01:51:38.601Z,25.91
2023-01-09T01:52:38.609Z,25.91
2023-01-09T01:53:38.622Z,25.87
2023-01-09T01:54:38.608Z,25.91
2023-01-09T01:55:38.600Z,25.92
2023-01-09T01:56:38.633Z,25.94
2023-01-09T01:57:38.599Z,25.91
2023-01-09T01:58:38.609Z,25.85
2023-01-09T01:59:38.638Z,25.91
2023-01-09T02:00:38.615Z,25.90
2023-01-09T02:01:38.842Z,25.92
2023-01-09T02:02:38.668Z,25.90
2023-01-09T02:03:38.593Z,25.90
2023-01-09T02:04:38.600Z,25.90
2023-01-09T02:05:38.591Z,25.88
2023-01-09T02:06:38.596Z,25.88
2023-01-09T02:07:38.594Z,25.88
2023-01-09T02:08:38.595Z,25.91
2023-01-09T02:09:38.591Z,25.90
2023-01-09T02:10:38.595Z,25.88
2023-01-09T02:11:38.586Z,25.88
2023-01-09T02:12:38.623Z,25.90
2023-01-09T02:13:38.587Z,25.90
2023-01-09T02:14:38.594Z,25.87
2023-01-09T02:15:38.583Z,25.90
2023-01-09T02:16:38.589Z,25.91
2023-01-09T02:17:38.582Z,25.91
2023-01-09T02:18:38.590Z,25.91
2023-01-09T02:19:38.581Z,25.95
2023-01-09T02:20:38.585Z,25.88
2023-01-09T02:21:38.590Z,25.92
2023-01-09T02:22:38.588Z,25.90
2023-01-09T02:23:38.574Z,25.92
2023-01-09T02:24:38.581Z,25.92
2023-01-09T02:25:38.588Z,25.90
2023-01-09T02:26:38.584Z,25.87
2023-01-09T02:27:38.572Z,25.90
2023-01-09T02:28:38.611Z,25.90
2023-01-09T02:29:38.569Z,25.92
2023-01-09T02:30:38.578Z,25.92
2023-01-09T02:31:38.643Z,25.90
2023-01-09T02:32:38.599Z,25.92
2023-01-09T02:33:38.569Z,25.90
2023-01-09T02:34:38.581Z,25.92
2023-01-09T02:35:38.575Z,25.92
2023-01-09T02:36:38.571Z,25.85
2023-01-09T02:37:38.564Z,25.90
2023-01-09T02:38:38.571Z,25.94
2023-01-09T02:39:38.562Z,25.83
2023-01-09T02:40:38.576Z,25.87
2023-01-09T02:41:38.567Z,25.92
2023-01-09T02:42:38.565Z,25.90
2023-01-09T02:43:38.557Z,25.94
2023-01-09T02:44:38.592Z,25.90
2023-01-09T02:45:38.603Z,25.90
2023-01-09T02:46:38.566Z,25.88
2023-01-09T02:47:38.554Z,25.88
2023-01-09T02:48:38.562Z,25.85
2023-01-09T02:49:38.579Z,25.95
2023-01-09T02:50:38.562Z,25.91
2023-01-09T02:51:38.551Z,25.88
2023-01-09T02:52:38.573Z,25.88
2023-01-09T02:53:38.548Z,25.92
2023-01-09T02:54:38.555Z,25.91
2023-01-09T02:55:38.547Z,25.88
2023-01-09T02:56:38.556Z,25.87
2023-01-09T02:57:38.548Z,25.88
2023-01-09T02:58:38.554Z,25.90
2023-01-09T02:59:38.545Z,25.88
2023-01-09T03:00:38.575Z,25.90
2023-01-09T03:01:38.654Z,25.90
2023-01-09T03:02:38.569Z,25.87
2023-01-09T03:03:38.544Z,25.83
2023-01-09T03:04:38.549Z,25.91
2023-01-09T03:05:38.541Z,25.87
2023-01-09T03:06:38.547Z,25.87
2023-01-09T03:07:38.539Z,25.87
2023-01-09T03:08:38.545Z,25.88
2023-01-09T03:09:38.538Z,25.87
2023-01-09T03:10:38.542Z,25.87
2023-01-09T03:11:38.537Z,25.91
2023-01-09T03:12:38.547Z,25.90
2023-01-09T03:13:38.534Z,25.90
2023-01-09T03:14:38.540Z,25.92
2023-01-09T03:15:38.532Z,25.88
2023-01-09T03:16:38.629Z,25.87
2023-01-09T03:17:38.543Z,25.85
2023-01-09T03:18:38.538Z,25.90
2023-01-09T03:19:38.533Z,25.92
2023-01-09T03:20:38.537Z,25.87
2023-01-09T03:21:38.526Z,25.90
2023-01-09T03:22:38.535Z,25.88
2023-01-09T03:23:38.526Z,25.88
2023-01-09T03:24:38.532Z,25.91
2023-01-09T03:25:38.526Z,25.91
2023-01-09T03:26:38.533Z,25.92
2023-01-09T03:27:38.533Z,25.90
2023-01-09T03:28:38.531Z,25.88
2023-01-09T03:29:38.519Z,25.90
2023-01-09T03:30:38.524Z,25.87
2023-01-09T03:31:38.543Z,25.90
2023-01-09T03:32:38.551Z,25.92
2023-01-09T03:33:38.528Z,25.88
2023-01-09T03:34:38.523Z,25.88
2023-01-09T03:35:38.514Z,25.92
2023-01-09T03:36:38.521Z,25.88
2023-01-09T03:37:38.517Z,25.90
2023-01-09T03:38:38.519Z,25.90
2023-01-09T03:39:38.514Z,25.88
2023-01-09T03:40:38.527Z,25.91
2023-01-09T03:41:38.511Z,25.90
2023-01-09T03:42:38.527Z,25.92
2023-01-09T03:43:38.516Z,25.88
2023-01-09T03:44:38.522Z,25.91
2023-01-09T03:45:38.578Z,25.92
2023-01-09T03:46:38.514Z,25.87
2023-01-09T03:47:38.507Z,25.87
2023-01-09T03:48:38.535Z,25.90
2023-01-09T03:49:38.511Z,25.95
2023-01-09T03:50:38.512Z,25.91
2023-01-09T03:51:38.543Z,25.95
2023-01-09T03:52:38.511Z,25.91
2023-01-09T03:53:38.502Z,25.88
2023-01-09T03:54:38.508Z,25.94
2023-01-09T03:55:38.504Z,25.94
2023-01-09T03:56:38.519Z,25.87
2023-01-09T03:57:38.506Z,25.87
2023-01-09T03:58:38.506Z,25.91
2023-01-09T03:59:38.497Z,25.90
2023-01-09T04:00:38.508Z,25.87
2023-01-09T04:01:38.592Z,25.91
2023-01-09T04:02:38.502Z,25.90
2023-01-09T04:03:38.520Z,25.95
2023-01-09T04:04:38.526Z,25.88
2023-01-09T04:05:38.490Z,25.87
2023-01-09T04:06:38.496Z,25.91
2023-01-09T04:07:38.496Z,25.95
2023-01-09T04:08:38.500Z,25.92
2023-01-09T04:09:38.490Z,25.90
2023-01-09T04:10:38.492Z,25.91
2023-01-09T04:11:38.488Z,25.90
2023-01-09T04:12:38.494Z,25.90
2023-01-09T04:13:38.493Z,25.88
2023-01-09T04:14:38.490Z,25.88
2023-01-09T04:15:38.480Z,25.88
2023-01-09T04:16:38.506Z,25.94
2023-01-09T04:17:38.480Z,25.88
2023-01-09T04:18:38.492Z,25.80
2023-01-09T04:19:38.479Z,25.87
2023-01-09T04:20:38.511Z,25.87
2023-01-09T04:21:38.483Z,25.94
2023-01-09T04:22:38.485Z,25.83
2023-01-09T04:23:38.481Z,25.88
2023-01-09T04:24:38.485Z,25.91
2023-01-09T04:25:38.486Z,25.87
2023-01-09T04:26:38.483Z,25.90
2023-01-09T04:27:38.494Z,25.92
2023-01-09T04:28:38.482Z,25.92
2023-01-09T04:29:38.471Z,25.90
2023-01-09T04:30:38.476Z,25.85
2023-01-09T04:31:38.499Z,25.83
2023-01-09T04:32:38.475Z,25.83
2023-01-09T04:33:38.467Z,25.94
2023-01-09T04:34:38.475Z,25.91
2023-01-09T04:35:38.467Z,25.88
2023-01-09T04:36:38.495Z,25.87
2023-01-09T04:37:38.464Z,25.91
2023-01-09T04:38:38.474Z,25.83
2023-01-09T04:39:38.462Z,25.87
2023-01-09T04:40:38.470Z,25.90
2023-01-09T04:41:38.458Z,25.91
2023-01-09T04:42:38.465Z,25.92
2023-01-09T04:43:38.460Z,25.85
2023-01-09T04:44:38.465Z,25.85
2023-01-09T04:45:38.494Z,25.87
2023-01-09T04:46:38.473Z,25.83
2023-01-09T04:47:38.472Z,25.90
2023-01-09T04:48:38.461Z,25.87
2023-01-09T04:49:38.452Z,25.88
2023-01-09T04:50:38.462Z,25.90
2023-01-09T04:51:38.452Z,25.90
2023-01-09T04:52:39.162Z,25.91
2023-01-09T04:53:38.452Z,25.90
2023-01-09T04:54:38.457Z,25.90
2023-01-09T04:55:38.450Z,25.92
2023-01-09T04:56:38.467Z,25.90
2023-01-09T04:57:38.452Z,25.87
2023-01-09T04:58:38.465Z,25.91
2023-01-09T04:59:38.449Z,25.88
2023-01-09T05:00:38.457Z,25.92
2023-01-09T05:01:38.537Z,25.90
2023-01-09T05:02:38.461Z,25.91
2023-01-09T05:03:38.444Z,25.91
2023-01-09T05:04:38.489Z,25.90
2023-01-09T05:05:38.440Z,25.90
2023-01-09T05:06:38.449Z,25.87
2023-01-09T05:07:38.456Z,25.85
2023-01-09T05:08:38.465Z,25.88
2023-01-09T05:09:38.438Z,25.91
2023-01-09T05:10:38.445Z,25.91
2023-01-09T05:11:38.436Z,25.90
2023-01-09T05:12:38.441Z,25.91
2023-01-09T05:13:38.459Z,25.90
2023-01-09T05:14:38.441Z,25.95
2023-01-09T05:15:38.432Z,25.88
2023-01-09T05:16:38.492Z,25.90
2023-01-09T05:17:38.429Z,25.85
2023-01-09T05:18:38.437Z,25.85
2023-01-09T05:19:38.429Z,25.88
2023-01-09T05:20:38.439Z,25.92
2023-01-09T05:21:38.428Z,25.88
2023-01-09T05:22:38.442Z,25.91
2023-01-09T05:23:38.434Z,25.87
2023-01-09T05:24:38.458Z,25.87
2023-01-09T05:25:38.423Z,25.87
2023-01-09T05:26:38.438Z,25.85
2023-01-09T05:27:38.428Z,25.87
2023-01-09T05:28:38.428Z,25.90
2023-01-09T05:29:38.419Z,25.87
2023-01-09T05:30:38.432Z,25.88
2023-01-09T05:31:38.457Z,25.91
2023-01-09T05:32:38.423Z,25.94
2023-01-09T05:33:38.413Z,25.88
2023-01-09T05:34:38.423Z,25.91
2023-01-09T05:35:38.412Z,25.91
2023-01-09T05:36:38.420Z,25.87
2023-01-09T05:37:38.410Z,25.90
2023-01-09T05:38:38.416Z,25.90
2023-01-09T05:39:38.416Z,25.90
2023-01-09T05:40:40.306Z,25.82
2023-01-09T05:41:38.409Z,25.90
2023-01-09T05:42:38.422Z,25.85
2023-01-09T05:43:38.406Z,25.92
2023-01-09T05:44:38.414Z,25.83
2023-01-09T05:45:38.488Z,25.85
2023-01-09T05:46:38.422Z,25.90
2023-01-09T05:47:38.403Z,25.87
2023-01-09T05:48:38.408Z,25.90
2023-01-09T05:49:38.410Z,25.87
2023-01-09T05:50:38.399Z,25.90
2023-01-09T05:51:38.416Z,25.88
2023-01-09T05:52:38.397Z,25.87
2023-01-09T05:53:38.402Z,25.87
2023-01-09T05:54:38.395Z,25.88
2023-01-09T05:55:38.400Z,25.83
2023-01-09T05:56:38.422Z,25.92
2023-01-09T05:57:38.408Z,25.88
2023-01-09T05:58:38.401Z,25.90
2023-01-09T05:59:38.396Z,25.91
2023-01-09T06:00:38.389Z,25.85
2023-01-09T06:01:38.409Z,25.87
2023-01-09T06:02:38.560Z,25.90
2023-01-09T06:03:38.396Z,25.88
2023-01-09T06:04:38.388Z,25.88
2023-01-09T06:05:38.399Z,25.85
2023-01-09T06:06:38.387Z,25.79
2023-01-09T06:07:38.392Z,25.87
2023-01-09T06:08:38.391Z,25.88
2023-01-09T06:09:38.389Z,25.85
2023-01-09T06:10:38.403Z,25.85
2023-01-09T06:11:38.398Z,25.87
2023-01-09T06:12:38.406Z,25.83
2023-01-09T06:13:38.392Z,25.82
2023-01-09T06:14:38.377Z,25.83
2023-01-09T06:15:38.488Z,25.83
2023-01-09T06:16:38.379Z,25.79
2023-01-09T06:17:38.393Z,25.85
2023-01-09T06:18:38.381Z,25.79
2023-01-09T06:19:38.380Z,25.79
2023-01-09T06:20:38.372Z,25.80
2023-01-09T06:21:38.375Z,25.77
2023-01-09T06:22:38.370Z,25.79
2023-01-09T06:23:38.386Z,25.79
2023-01-09T06:24:38.370Z,25.80
2023-01-09T06:25:38.375Z,25.79
2023-01-09T06:26:38.368Z,25.82
2023-01-09T06:27:38.373Z,25.83
2023-01-09T06:28:38.497Z,25.79
2023-01-09T06:29:38.373Z,25.76
2023-01-09T06:30:38.363Z,25.77
2023-01-09T06:31:38.372Z,25.80
2023-01-09T06:32:38.366Z,25.82
2023-01-09T06:33:38.367Z,25.75
2023-01-09T06:34:38.361Z,25.75
2023-01-09T06:35:38.368Z,25.82
2023-01-09T06:36:38.355Z,25.76
2023-01-09T06:37:38.364Z,25.76
2023-01-09T06:38:38.354Z,25.79
2023-01-09T06:39:38.360Z,25.80
2023-01-09T06:40:38.361Z,25.82
2023-01-09T06:41:38.361Z,25.75
2023-01-09T06:42:38.352Z,25.80
2023-01-09T06:43:38.358Z,25.80
2023-01-09T06:44:38.375Z,25.79
2023-01-09T06:45:38.355Z,25.80
2023-01-09T06:46:38.350Z,25.79
2023-01-09T06:47:38.361Z,25.79
2023-01-09T06:48:38.384Z,25.80
2023-01-09T06:49:38.351Z,25.80
2023-01-09T06:50:38.349Z,25.75
2023-01-09T06:51:38.348Z,25.83
2023-01-09T06:52:38.360Z,25.79
2023-01-09T06:53:38.348Z,25.79
2023-01-09T06:54:38.337Z,25.83
2023-01-09T06:55:38.361Z,25.82
2023-01-09T06:56:38.340Z,25.80
2023-01-09T06:57:38.344Z,25.83
2023-01-09T06:58:38.336Z,25.82
2023-01-09T06:59:38.343Z,25.77
2023-01-09T07:00:38.361Z,25.80
2023-01-09T07:01:38.462Z,25.79
2023-01-09T07:02:38.340Z,25.83
2023-01-09T07:03:38.337Z,25.82
2023-01-09T07:04:38.330Z,25.75
2023-01-09T07:05:38.336Z,25.77
2023-01-09T07:06:38.350Z,25.79
2023-01-09T07:07:38.334Z,25.80
2023-01-09T07:08:38.325Z,25.82
2023-01-09T07:09:38.331Z,25.83
2023-01-09T07:10:38.476Z,25.83
2023-01-09T07:11:38.329Z,25.82
2023-01-09T07:12:38.324Z,25.82
2023-01-09T07:13:38.337Z,25.76
2023-01-09T07:14:38.319Z,25.75
2023-01-09T07:15:38.443Z,25.87
2023-01-09T07:16:38.343Z,25.83
2023-01-09T07:17:38.335Z,25.79
2023-01-09T07:18:38.317Z,25.80
2023-01-09T07:19:38.324Z,25.83
2023-01-09T07:20:38.317Z,25.77
2023-01-09T07:21:38.320Z,25.79
2023-01-09T07:22:38.323Z,25.80
2023-01-09T07:23:38.320Z,25.77
2023-01-09T07:24:38.312Z,25.83
2023-01-09T07:25:38.320Z,25.77
2023-01-09T07:26:38.310Z,25.85
2023-01-09T07:27:38.317Z,25.83
2023-01-09T07:28:38.307Z,25.82
2023-01-09T07:29:38.315Z,25.79
2023-01-09T07:30:38.308Z,25.83
2023-01-09T07:31:38.350Z,25.76
2023-01-09T07:32:38.335Z,25.80
2023-01-09T07:33:38.308Z,25.83
2023-01-09T07:34:38.303Z,25.80
2023-01-09T07:35:38.309Z,25.80
2023-01-09T07:36:38.299Z,25.82
2023-01-09T07:37:38.320Z,25.87
2023-01-09T07:38:38.305Z,25.83
2023-01-09T07:39:38.322Z,25.82
2023-01-09T07:40:38.301Z,25.82
2023-01-09T07:41:38.304Z,25.77
2023-01-09T07:42:38.305Z,25.82
2023-01-09T07:43:38.307Z,25.79
2023-01-09T07:44:38.295Z,25.83
2023-01-09T07:45:38.303Z,25.80
2023-01-09T07:46:38.413Z,25.82
2023-01-09T07:47:38.311Z,25.83
2023-01-09T07:48:38.325Z,25.76
2023-01-09T07:49:38.296Z,25.79
2023-01-09T07:50:38.296Z,25.88
2023-01-09T07:51:38.294Z,25.83
2023-01-09T07:52:38.286Z,25.80
2023-01-09T07:53:38.291Z,25.79
2023-01-09T07:54:38.287Z,25.77
2023-01-09T07:55:38.291Z,25.83
2023-01-09T07:56:38.283Z,25.77
2023-01-09T07:57:38.290Z,25.87
2023-01-09T07:58:38.281Z,25.79
2023-01-09T07:59:38.287Z,25.77
2023-01-09T08:00:38.282Z,25.83
2023-01-09T08:01:38.401Z,25.85
2023-01-09T08:02:38.294Z,25.90
2023-01-09T08:03:38.284Z,25.91
2023-01-09T08:04:38.311Z,25.92
2023-01-09T08:05:38.284Z,25.91
2023-01-09T08:06:38.272Z,25.94
2023-01-09T08:07:38.281Z,25.92
2023-01-09T08:08:38.277Z,26.05
2023-01-09T08:09:38.279Z,26.02
2023-01-09T08:10:38.274Z,26.12
2023-01-09T08:11:38.278Z,26.10
2023-01-09T08:12:38.269Z,26.09
2023-01-09T08:13:38.274Z,26.07
2023-01-09T08:14:38.268Z,26.05
2023-01-09T08:15:38.315Z,25.98
2023-01-09T08:16:38.265Z,26.05
2023-01-09T08:17:38.270Z,26.05
2023-01-09T08:18:38.262Z,25.99
2023-01-09T08:19:38.268Z,25.95
2023-01-09T08:20:38.289Z,26.01
2023-01-09T08:21:38.269Z,26.05
2023-01-09T08:22:38.259Z,26.01
2023-01-09T08:23:38.281Z,26.02
2023-01-09T08:24:38.282Z,26.01
2023-01-09T08:25:38.264Z,26.01
2023-01-09T08:26:38.257Z,26.01
2023-01-09T08:27:38.270Z,26.01
2023-01-09T08:28:38.255Z,26.01
2023-01-09T08:29:38.259Z,26.02
2023-01-09T08:30:38.255Z,26.05
2023-01-09T08:31:38.276Z,26.01
2023-01-09T08:32:38.258Z,25.99
2023-01-09T08:33:40.455Z,26.01
2023-01-09T08:34:38.314Z,25.97
2023-01-09T08:35:38.255Z,26.06
2023-01-09T08:36:38.277Z,25.98
2023-01-09T08:37:38.259Z,26.07
2023-01-09T08:38:38.249Z,25.98
2023-01-09T08:39:38.255Z,25.99
2023-01-09T08:40:38.276Z,26.01
2023-01-09T08:41:38.262Z,26.01
2023-01-09T08:42:38.246Z,26.01
2023-01-09T08:43:38.263Z,25.98
2023-01-09T08:44:38.244Z,26.05
2023-01-09T08:45:38.257Z,26.07
2023-01-09T08:46:38.314Z,25.98
2023-01-09T08:47:38.252Z,26.06
2023-01-09T08:48:38.241Z,25.94
2023-01-09T08:49:38.255Z,26.09
2023-01-09T08:50:38.239Z,26.07
2023-01-09T08:51:38.244Z,25.97
2023-01-09T08:52:38.260Z,25.99
2023-01-09T08:53:38.248Z,25.99
2023-01-09T08:54:38.236Z,26.06
2023-01-09T08:55:38.243Z,25.99
2023-01-09T08:56:38.239Z,26.09
2023-01-09T08:57:38.249Z,25.99
2023-01-09T08:58:38.235Z,26.05
2023-01-09T08:59:38.241Z,26.05
2023-01-09T09:00:38.256Z,26.02
2023-01-09T09:01:38.294Z,26.06
2023-01-09T09:02:38.306Z,25.98
2023-01-09T09:03:38.243Z,26.05
2023-01-09T09:04:38.234Z,26.06
2023-01-09T09:05:38.239Z,25.95
2023-01-09T09:06:38.229Z,25.98
2023-01-09T09:07:38.239Z,26.01
2023-01-09T09:08:38.251Z,26.02
2023-01-09T09:09:38.232Z,26.05
2023-01-09T09:10:38.225Z,26.06
2023-01-09T09:11:38.234Z,26.01
2023-01-09T09:12:38.222Z,25.98
2023-01-09T09:13:38.227Z,25.98
2023-01-09T09:14:38.223Z,25.98
2023-01-09T09:15:38.365Z,26.05
2023-01-09T09:16:38.225Z,25.98
2023-01-09T09:17:38.225Z,26.13
2023-01-09T09:18:38.220Z,25.98
2023-01-09T09:19:38.240Z,25.99
2023-01-09T09:20:38.215Z,25.95
2023-01-09T09:21:38.223Z,26.05
2023-01-09T09:22:38.245Z,26.02
2023-01-09T09:23:38.221Z,25.95
2023-01-09T09:24:38.245Z,26.05
2023-01-09T09:25:38.263Z,25.99
2023-01-09T09:26:38.211Z,26.12
2023-01-09T09:27:38.223Z,26.01
2023-01-09T09:28:38.211Z,25.97
2023-01-09T09:29:38.218Z,26.02
2023-01-09T09:30:38.211Z,26.05
2023-01-09T09:31:38.293Z,25.98
2023-01-09T09:32:38.208Z,26.01
2023-01-09T09:33:38.211Z,25.99
2023-01-09T09:34:38.204Z,26.01
2023-01-09T09:35:38.217Z,26.02
2023-01-09T09:36:38.246Z,25.97
2023-01-09T09:37:38.220Z,26.02
2023-01-09T09:38:38.206Z,26.01
2023-01-09T09:39:38.220Z,25.98
2023-01-09T09:40:38.230Z,26.01
2023-01-09T09:41:38.215Z,26.07
2023-01-09T09:42:38.210Z,26.02
2023-01-09T09:43:38.210Z,26.09
2023-01-09T09:44:39.499Z,26.06
2023-01-09T09:45:38.205Z,25.98
2023-01-09T09:46:38.338Z,26.02
2023-01-09T09:47:38.243Z,26.09
2023-01-09T09:48:38.205Z,26.07
2023-01-09T09:49:38.201Z,26.01
2023-01-09T09:50:38.193Z,25.99
2023-01-09T09:51:38.200Z,26.13
2023-01-09T09:52:38.212Z,26.05
2023-01-09T09:53:38.197Z,26.07
2023-01-09T09:54:38.192Z,26.05
2023-01-09T09:55:38.196Z,26.05
2023-01-09T09:56:38.226Z,25.99
2023-01-09T09:57:38.193Z,25.97
2023-01-09T09:58:38.190Z,26.09
2023-01-09T09:59:38.199Z,25.97
2023-01-09T10:00:38.198Z,25.95
2023-01-09T10:01:38.191Z,25.99
2023-01-09T10:02:38.243Z,25.97
2023-01-09T10:03:38.214Z,25.98
2023-01-09T10:04:38.186Z,26.02
2023-01-09T10:05:38.185Z,25.98
2023-01-09T10:06:38.189Z,26.02
2023-01-09T10:07:40.486Z,25.97
2023-01-09T10:08:38.195Z,25.95
2023-01-09T10:09:38.181Z,26.01
2023-01-09T10:10:38.240Z,26.01
2023-01-09T10:11:38.183Z,25.99
2023-01-09T10:12:38.236Z,26.02
2023-01-09T10:13:38.181Z,26.09
2023-01-09T10:14:38.182Z,26.05
2023-01-09T10:15:38.618Z,25.98
2023-01-09T10:16:38.182Z,26.06
2023-01-09T10:17:38.176Z,26.01
2023-01-09T10:18:38.196Z,26.01
2023-01-09T10:19:38.174Z,26.05
2023-01-09T10:20:38.184Z,26.01
2023-01-09T10:21:38.170Z,26.05
2023-01-09T10:22:38.175Z,26.05
2023-01-09T10:23:38.170Z,25.97
2023-01-09T10:24:38.177Z,26.01
2023-01-09T10:25:38.166Z,25.97
2023-01-09T10:26:38.179Z,26.02
2023-01-09T10:27:38.170Z,26.05
2023-01-09T10:28:38.221Z,25.97
2023-01-09T10:29:40.228Z,26.07
2023-01-09T10:30:38.175Z,25.99
2023-01-09T10:31:38.218Z,26.02
2023-01-09T10:32:38.166Z,25.99
2023-01-09T10:33:38.163Z,26.01
2023-01-09T10:34:38.198Z,25.99
2023-01-09T10:35:47.395Z,25.97
2023-01-09T10:36:38.185Z,25.95
2023-01-09T10:37:38.167Z,25.99
2023-01-09T10:38:38.174Z,25.99
2023-01-09T10:39:38.159Z,25.95
2023-01-09T10:40:38.164Z,26.06
2023-01-09T10:41:38.155Z,26.06
2023-01-09T10:42:38.161Z,25.97
2023-01-09T10:43:38.162Z,26.06
2023-01-09T10:44:38.186Z,26.06
2023-01-09T10:45:38.148Z,25.98
2023-01-09T10:46:38.207Z,25.98
2023-01-09T10:47:38.150Z,25.99
2023-01-09T10:48:38.164Z,25.98
2023-01-09T10:49:38.153Z,26.02
2023-01-09T10:50:38.155Z,26.09
2023-01-09T10:51:38.147Z,26.10
2023-01-09T10:52:38.165Z,25.98
2023-01-09T10:53:38.143Z,25.97
2023-01-09T10:54:38.157Z,25.95
2023-01-09T10:55:38.142Z,25.91
2023-01-09T10:56:38.157Z,26.01
2023-01-09T10:57:38.148Z,25.98
2023-01-09T10:58:38.156Z,26.05
2023-01-09T10:59:38.152Z,25.99
2023-01-09T11:00:38.189Z,25.95
2023-01-09T11:01:38.136Z,26.05
2023-01-09T11:02:38.205Z,26.01
2023-01-09T11:03:38.225Z,26.02
2023-01-09T11:04:38.170Z,26.01
2023-01-09T11:05:38.179Z,26.02
2023-01-09T11:06:38.154Z,25.99
2023-01-09T11:07:38.147Z,25.99
2023-01-09T11:08:38.142Z,25.91
2023-01-09T11:09:38.132Z,25.98
2023-01-09T11:10:38.140Z,25.92
2023-01-09T11:11:38.132Z,25.94
2023-01-09T11:12:38.136Z,26.01
2023-01-09T11:13:38.128Z,25.99
2023-01-09T11:14:38.136Z,25.95
2023-01-09T11:15:38.126Z,25.99
2023-01-09T11:16:38.166Z,26.01
2023-01-09T11:17:38.126Z,25.98
2023-01-09T11:18:38.135Z,25.92
2023-01-09T11:19:38.124Z,26.01
2023-01-09T11:20:38.129Z,26.01
2023-01-09T11:21:38.182Z,25.94
2023-01-09T11:22:38.129Z,25.95
2023-01-09T11:23:38.123Z,25.92
2023-01-09T11:24:38.133Z,25.92
2023-01-09T11:25:38.118Z,25.94
2023-01-09T11:26:38.124Z,25.94
2023-01-09T11:27:38.120Z,25.98
2023-01-09T11:28:38.128Z,26.02
2023-01-09T11:29:38.111Z,25.99
2023-01-09T11:30:38.127Z,25.98
2023-01-09T11:31:38.149Z,25.94
2023-01-09T11:32:38.148Z,25.98
2023-01-09T11:33:38.113Z,25.94
2023-01-09T11:34:38.124Z,25.97
2023-01-09T11:35:38.118Z,26.02
2023-01-09T11:36:38.146Z,25.99
2023-01-09T11:37:38.111Z,26.02
2023-01-09T11:38:38.117Z,25.92
2023-01-09T11:39:38.147Z,25.91
2023-01-09T11:40:38.116Z,26.01
2023-01-09T11:41:38.107Z,26.01
2023-01-09T11:42:38.113Z,26.01
2023-01-09T11:43:38.112Z,25.98
2023-01-09T11:44:38.112Z,26.01
2023-01-09T11:45:38.103Z,25.97
2023-01-09T11:46:38.183Z,25.99
2023-01-09T11:47:38.104Z,25.98
2023-01-09T11:48:38.151Z,26.01
2023-01-09T11:49:38.114Z,26.06
2023-01-09T11:50:38.107Z,25.95
2023-01-09T11:51:38.103Z,25.98
2023-01-09T11:52:38.107Z,25.95
2023-01-09T11:53:38.100Z,25.99
2023-01-09T11:54:38.102Z,26.01
2023-01-09T11:55:42.940Z,26.12
2023-01-09T11:56:38.107Z,25.99
2023-01-09T11:57:38.094Z,25.98
2023-01-09T11:58:38.103Z,26.05
2023-01-09T11:59:38.091Z,25.99
2023-01-09T12:00:38.098Z,26.05
2023-01-09T12:01:38.138Z,26.05
2023-01-09T12:02:38.099Z,26.05
2023-01-09T12:03:38.092Z,25.98
2023-01-09T12:04:38.137Z,25.95
2023-01-09T12:05:38.086Z,26.01
2023-01-09T12:06:38.094Z,26.01
2023-01-09T12:07:38.085Z,26.10
2023-01-09T12:08:38.095Z,26.02
2023-01-09T12:09:38.091Z,26.06
2023-01-09T12:10:38.093Z,25.98
2023-01-09T12:11:38.083Z,26.10
2023-01-09T12:12:38.094Z,26.02
2023-01-09T12:13:38.082Z,26.07
2023-01-09T12:14:38.091Z,26.02
2023-01-09T12:15:38.082Z,26.07
2023-01-09T12:16:38.128Z,26.05
2023-01-09T12:17:38.078Z,25.99
2023-01-09T12:18:38.084Z,25.99
2023-01-09T12:19:38.078Z,25.98
2023-01-09T12:20:38.106Z,26.01
2023-01-09T12:21:38.075Z,26.05
2023-01-09T12:22:38.079Z,25.97
2023-01-09T12:23:38.075Z,26.05
2023-01-09T12:24:38.081Z,26.02
2023-01-09T12:25:38.072Z,25.97
2023-01-09T12:26:38.079Z,26.02
2023-01-09T12:27:38.085Z,26.05
2023-01-09T12:28:38.080Z,25.98
2023-01-09T12:29:38.091Z,25.99
2023-01-09T12:30:38.075Z,26.01
2023-01-09T12:31:38.099Z,26.06
2023-01-09T12:32:38.073Z,26.02
2023-01-09T12:33:38.066Z,26.05
2023-01-09T12:34:38.072Z,26.10
2023-01-09T12:35:38.064Z,25.99
2023-01-09T12:36:38.167Z,26.01
2023-01-09T12:37:38.061Z,26.07
2023-01-09T12:38:38.068Z,26.02
2023-01-09T12:39:38.155Z,26.01
2023-01-09T12:40:38.067Z,26.02
2023-01-09T12:41:38.056Z,26.05
2023-01-09T12:42:38.065Z,25.98
2023-01-09T12:43:38.061Z,25.99
2023-01-09T12:44:38.074Z,26.01
2023-01-09T12:45:38.100Z,25.98
2023-01-09T12:46:38.061Z,26.10
2023-01-09T12:47:38.053Z,25.99
2023-01-09T12:48:38.061Z,25.99
2023-01-09T12:49:38.052Z,25.98
2023-01-09T12:50:38.058Z,25.99
2023-01-09T12:51:38.051Z,26.06
2023-01-09T12:52:38.079Z,26.02